Time;durP1;ratioP1;P1;durP2;ratioP2;P2;SDS_P1;SDS_P2;PMS_P1;PMS_P2;Temp;Humidity;BMP_temperature;BMP_pressure;BME280_temperature;BME280_humidity;BME280_pressure;Samples;Min_cycle;Max_cycle;Signal;HPM_P1;HPM_P2
2023/04/28 00:01:59;;;;;;;10.27;6.10;;;7.60;99.90;;;;;;5062014;28;20036;-88
2023/04/28 00:04:25;;;;;;;10.10;5.65;;;7.50;99.90;;;;;;5057634;28;20470;-88
2023/04/28 00:06:51;;;;;;;12.68;6.03;;;7.60;99.90;;;;;;5051637;28;20127;-88
2023/04/28 00:09:16;;;;;;;11.85;6.57;;;7.50;99.90;;;;;;5052605;28;20037;-88
2023/04/28 00:11:45;;;;;;;9.48;6.00;;;7.50;99.90;;;;;;5071912;28;20475;-88
2023/04/28 00:14:11;;;;;;;8.40;5.65;;;7.50;99.90;;;;;;5053276;28;20049;-87
2023/04/28 00:16:36;;;;;;;12.02;6.22;;;7.40;99.90;;;;;;5055271;28;20098;-88
2023/04/28 00:19:02;;;;;;;10.55;6.20;;;7.40;99.90;;;;;;5055734;28;20033;-88
2023/04/28 00:21:28;;;;;;;10.00;5.57;;;7.40;99.90;;;;;;5050859;28;20041;-88
2023/04/28 00:23:54;;;;;;;12.27;6.00;;;7.40;99.90;;;;;;5054939;28;20037;-88
2023/04/28 00:26:19;;;;;;;9.70;6.00;;;7.40;99.90;;;;;;5052821;28;20040;-88
2023/04/28 00:28:45;;;;;;;10.80;6.15;;;7.30;99.90;;;;;;5059441;28;20045;-88
2023/04/28 00:31:12;;;;;;;9.93;5.80;;;7.30;99.90;;;;;;5053025;28;20479;-88
2023/04/28 00:33:38;;;;;;;10.93;5.90;;;7.40;99.90;;;;;;5053534;28;20037;-88
2023/04/28 00:36:04;;;;;;;12.82;6.10;;;7.40;99.90;;;;;;5079401;28;20039;-88
2023/04/28 00:38:30;;;;;;;9.90;5.53;;;7.30;99.90;;;;;;5059177;28;20032;-89
2023/04/28 00:40:56;;;;;;;10.02;6.20;;;7.30;99.90;;;;;;5066889;28;20029;-88
2023/04/28 00:43:21;;;;;;;9.20;5.75;;;7.30;99.90;;;;;;5057997;28;20117;-87
2023/04/28 00:45:49;;;;;;;11.30;6.07;;;7.30;99.90;;;;;;5054379;28;20424;-88
2023/04/28 00:48:14;;;;;;;9.98;6.35;;;7.90;99.90;;;;;;5060848;28;20325;-88
2023/04/28 00:50:41;;;;;;;10.35;6.25;;;7.30;99.90;;;;;;5051688;28;20048;-88
2023/04/28 00:53:07;;;;;;;12.50;5.85;;;7.30;99.90;;;;;;5057555;28;20059;-88
2023/04/28 00:55:34;;;;;;;11.82;6.20;;;7.30;99.90;;;;;;5093319;28;20091;-89
2023/04/28 00:58:01;;;;;;;10.52;5.32;;;7.30;99.90;;;;;;5073873;28;20446;-88
2023/04/28 01:00:27;;;;;;;9.07;5.68;;;7.20;99.90;;;;;;5057704;28;20063;-88
2023/04/28 01:02:54;;;;;;;10.80;5.95;;;7.20;99.90;;;;;;5057924;28;20396;-88
2023/04/28 01:05:20;;;;;;;10.13;5.85;;;7.20;99.90;;;;;;5049198;28;20037;-88
2023/04/28 01:07:45;;;;;;;11.85;6.40;;;7.20;99.90;;;;;;5049254;28;20083;-88
2023/04/28 01:10:11;;;;;;;9.38;5.43;;;7.20;99.90;;;;;;5057001;28;20072;-87
2023/04/28 01:12:36;;;;;;;9.25;5.50;;;7.20;99.90;;;;;;5058154;28;20044;-88
2023/04/28 01:15:02;;;;;;;10.45;5.60;;;7.20;99.90;;;;;;5042181;28;20090;-89
2023/04/28 01:17:28;;;;;;;10.77;6.43;;;7.10;99.90;;;;;;5055128;28;20044;-88
2023/04/28 01:19:54;;;;;;;9.35;5.82;;;7.20;99.90;;;;;;5050518;28;20079;-88
2023/04/28 01:22:20;;;;;;;10.50;6.35;;;7.20;99.90;;;;;;5050944;28;20051;-87
2023/04/28 01:24:45;;;;;;;10.80;6.32;;;7.20;99.90;;;;;;5056817;28;20127;-88
2023/04/28 01:27:11;;;;;;;11.02;6.18;;;7.10;99.90;;;;;;5052892;28;20073;-89
2023/04/28 01:29:37;;;;;;;12.63;6.25;;;7.10;99.90;;;;;;5042369;28;20044;-89
2023/04/28 01:32:02;;;;;;;13.38;6.80;;;7.50;99.90;;;;;;5055552;28;20033;-88
2023/04/28 01:34:28;;;;;;;11.55;6.75;;;7.10;99.90;;;;;;5067097;28;20092;-88
2023/04/28 01:36:53;;;;;;;11.63;6.50;;;7.10;99.90;;;;;;5056506;28;20029;-87
2023/04/28 01:39:19;;;;;;;12.20;6.72;;;7.10;99.90;;;;;;5056293;28;20438;-87
2023/04/28 01:41:45;;;;;;;15.50;6.90;;;7.10;99.90;;;;;;5052209;28;20044;-87
2023/04/28 01:44:11;;;;;;;14.20;7.35;;;7.10;99.90;;;;;;5057654;28;20096;-87
2023/04/28 01:46:37;;;;;;;12.35;7.15;;;7.10;99.90;;;;;;5056256;28;20487;-87
2023/04/28 01:49:03;;;;;;;12.50;6.80;;;7.00;99.90;;;;;;5058082;28;20040;-87
2023/04/28 01:51:30;;;;;;;12.60;7.43;;;7.10;99.90;;;;;;5051995;28;20044;-88
2023/04/28 01:53:55;;;;;;;12.85;7.70;;;7.00;99.90;;;;;;5052595;28;20033;-87
2023/04/28 01:56:21;;;;;;;14.52;8.20;;;7.00;99.90;;;;;;5055397;28;20095;-87
2023/04/28 01:58:47;;;;;;;17.25;8.88;;;7.00;99.90;;;;;;5052476;28;20067;-87
2023/04/28 02:01:12;;;;;;;15.38;7.80;;;7.00;99.90;;;;;;5057778;28;20457;-90
2023/04/28 02:03:38;;;;;;;14.43;8.35;;;7.00;99.90;;;;;;5053104;28;20319;-88
2023/04/28 02:06:04;;;;;;;14.98;8.57;;;7.00;99.90;;;;;;5057293;28;20032;-87
2023/04/28 02:08:30;;;;;;;18.88;8.55;;;6.90;99.90;;;;;;5050611;28;20399;-87
2023/04/28 02:10:56;;;;;;;13.25;8.27;;;7.00;99.90;;;;;;5049871;28;20159;-87
2023/04/28 02:13:22;;;;;;;15.30;8.63;;;6.90;99.90;;;;;;5051637;28;20048;-87
2023/04/28 02:15:48;;;;;;;16.85;9.05;;;6.90;99.90;;;;;;5049773;28;20045;-87
2023/04/28 02:18:14;;;;;;;14.10;8.43;;;6.90;99.90;;;;;;5051646;28;20045;-87
2023/04/28 02:20:40;;;;;;;15.20;8.77;;;6.90;99.90;;;;;;5057371;28;20044;-87
2023/04/28 02:23:05;;;;;;;16.58;8.50;;;6.90;99.90;;;;;;5041924;28;20037;-87
2023/04/28 02:25:31;;;;;;;16.77;9.95;;;6.90;99.90;;;;;;5034240;28;20052;-87
2023/04/28 02:27:57;;;;;;;18.45;9.77;;;6.80;99.90;;;;;;5086870;28;20537;-89
2023/04/28 02:30:22;;;;;;;15.95;9.43;;;6.80;99.90;;;;;;5036747;28;20608;-89
2023/04/28 02:32:48;;;;;;;18.00;9.25;;;6.80;99.90;;;;;;5051259;28;20037;-87
2023/04/28 02:35:13;;;;;;;17.40;9.70;;;6.80;99.90;;;;;;5081574;28;20065;-88
2023/04/28 02:37:39;;;;;;;17.98;9.60;;;6.80;99.90;;;;;;5052556;28;20024;-88
2023/04/28 02:40:06;;;;;;;16.70;8.75;;;6.80;99.90;;;;;;5050885;28;20543;-88
2023/04/28 02:42:31;;;;;;;15.23;9.02;;;6.80;99.90;;;;;;5050987;28;20080;-88
2023/04/28 02:44:57;;;;;;;19.33;10.23;;;6.80;99.90;;;;;;5041358;28;20075;-88
2023/04/28 02:47:22;;;;;;;21.17;10.68;;;6.80;99.90;;;;;;5066544;28;20028;-87
2023/04/28 02:49:48;;;;;;;17.30;10.25;;;6.80;99.90;;;;;;5054262;28;20045;-87
2023/04/28 02:52:14;;;;;;;18.85;10.05;;;6.80;99.90;;;;;;5051547;28;20045;-88
2023/04/28 02:54:40;;;;;;;19.98;10.52;;;6.70;99.90;;;;;;5050884;28;20045;-87
2023/04/28 02:57:05;;;;;;;18.65;10.68;;;6.70;99.90;;;;;;5048015;28;20079;-88
2023/04/28 02:59:31;;;;;;;18.08;10.45;;;6.70;99.90;;;;;;5056951;28;20091;-87
2023/04/28 03:01:57;;;;;;;24.23;11.38;;;6.70;99.90;;;;;;5058000;28;20028;-87
2023/04/28 03:04:22;;;;;;;20.55;11.25;;;6.70;99.90;;;;;;5054565;28;20033;-87
2023/04/28 03:06:48;;;;;;;21.05;11.18;;;6.70;99.90;;;;;;5052361;28;20148;-87
2023/04/28 03:09:14;;;;;;;20.98;11.35;;;6.70;99.90;;;;;;5054975;28;20061;-88
2023/04/28 03:11:40;;;;;;;16.40;10.20;;;6.70;99.90;;;;;;5052335;28;20478;-88
2023/04/28 03:14:06;;;;;;;17.45;10.50;;;6.70;99.90;;;;;;5040371;28;20125;-88
2023/04/28 03:16:32;;;;;;;20.52;10.65;;;6.70;99.90;;;;;;5056077;28;20052;-87
2023/04/28 03:18:57;;;;;;;20.52;10.90;;;7.00;99.90;;;;;;5052887;28;20128;-88
2023/04/28 03:21:25;;;;;;;21.52;11.10;;;6.70;99.90;;;;;;5051976;28;20033;-88
2023/04/28 03:23:50;;;;;;;19.38;11.07;;;6.70;99.90;;;;;;5057622;28;20049;-87
2023/04/28 03:26:16;;;;;;;23.60;11.38;;;6.60;99.90;;;;;;5056258;28;20048;-88
2023/04/28 03:28:42;;;;;;;18.67;11.05;;;6.60;99.90;;;;;;5038300;28;20040;-88
2023/04/28 03:31:07;;;;;;;21.23;11.93;;;6.60;99.90;;;;;;5040504;28;20090;-87
2023/04/28 03:33:33;;;;;;;21.75;11.55;;;6.60;99.90;;;;;;5059684;28;20044;-87
2023/04/28 03:35:58;;;;;;;23.67;12.18;;;6.60;99.90;;;;;;5056069;28;20037;-87
2023/04/28 03:38:24;;;;;;;17.48;11.13;;;6.60;99.90;;;;;;5055106;28;20040;-87
2023/04/28 03:40:50;;;;;;;19.42;11.40;;;6.60;99.90;;;;;;5051579;28;20059;-88
2023/04/28 03:43:16;;;;;;;22.52;11.70;;;6.60;99.90;;;;;;5052126;28;20087;-87
2023/04/28 03:45:41;;;;;;;21.83;11.32;;;6.60;99.90;;;;;;5055765;28;20049;-87
2023/04/28 03:48:07;;;;;;;17.83;11.18;;;6.60;99.90;;;;;;5056264;28;20082;-87
2023/04/28 03:50:32;;;;;;;20.13;11.48;;;6.60;99.90;;;;;;5060493;28;20044;-88
2023/04/28 03:52:58;;;;;;;21.40;13.40;;;6.60;99.90;;;;;;5057073;28;20040;-87
2023/04/28 03:55:24;;;;;;;20.17;11.43;;;6.60;99.90;;;;;;5062704;28;20040;-88
2023/04/28 03:57:50;;;;;;;21.67;11.02;;;6.50;99.90;;;;;;5054009;28;20415;-88
2023/04/28 04:00:16;;;;;;;22.92;12.75;;;6.60;99.90;;;;;;5051997;28;20049;-88
2023/04/28 04:02:42;;;;;;;22.85;12.77;;;6.60;99.90;;;;;;5052109;28;20045;-87
2023/04/28 04:05:08;;;;;;;18.55;10.98;;;6.60;99.90;;;;;;5051281;28;20040;-87
2023/04/28 04:07:33;;;;;;;18.90;10.80;;;6.60;99.90;;;;;;5067325;28;20036;-88
2023/04/28 04:09:59;;;;;;;21.65;11.85;;;6.60;99.90;;;;;;5049832;28;20064;-87
2023/04/28 04:12:24;;;;;;;22.55;12.20;;;6.60;99.90;;;;;;5053017;28;20388;-88
2023/04/28 04:14:50;;;;;;;17.95;10.85;;;6.50;99.90;;;;;;5061448;28;20045;-88
2023/04/28 04:17:16;;;;;;;20.15;12.15;;;6.60;99.90;;;;;;5057155;28;20119;-88
2023/04/28 04:19:42;;;;;;;19.60;11.75;;;6.60;99.90;;;;;;5051485;28;20480;-88
2023/04/28 04:22:07;;;;;;;19.92;12.02;;;6.60;99.90;;;;;;5057515;28;20033;-87
2023/04/28 04:24:33;;;;;;;21.83;11.35;;;6.60;99.90;;;;;;5051820;28;20402;-87
2023/04/28 04:26:59;;;;;;;21.90;11.63;;;7.10;99.90;;;;;;5051342;28;20033;-87
2023/04/28 04:29:24;;;;;;;21.45;11.13;;;6.50;99.90;;;;;;5057150;28;20373;-87
2023/04/28 04:31:50;;;;;;;22.70;12.30;;;6.50;99.90;;;;;;5049767;28;20044;-87
2023/04/28 04:34:15;;;;;;;21.73;11.98;;;6.60;99.90;;;;;;5052115;28;20048;-87
2023/04/28 04:36:41;;;;;;;21.30;12.00;;;6.50;99.90;;;;;;5054689;28;20529;-88
2023/04/28 04:39:06;;;;;;;19.48;11.60;;;6.50;99.90;;;;;;5053174;28;20044;-88
2023/04/28 04:41:32;;;;;;;20.77;11.45;;;6.50;99.90;;;;;;5050719;28;20071;-87
2023/04/28 04:43:57;;;;;;;19.27;11.27;;;6.50;99.90;;;;;;5055347;28;20045;-87
2023/04/28 04:46:23;;;;;;;20.75;11.60;;;6.60;99.90;;;;;;5054737;28;20037;-87
2023/04/28 04:48:49;;;;;;;22.23;11.73;;;6.50;99.90;;;;;;5056859;28;20472;-86
2023/04/28 04:51:14;;;;;;;23.85;11.70;;;6.50;99.90;;;;;;5050800;28;20060;-87
2023/04/28 04:53:40;;;;;;;22.35;11.63;;;6.50;99.90;;;;;;5050079;28;20043;-87
2023/04/28 04:56:06;;;;;;;22.60;12.13;;;6.50;99.90;;;;;;5051028;28;20029;-87
2023/04/28 04:58:32;;;;;;;21.92;11.00;;;6.60;99.90;;;;;;5052896;28;20072;-88
2023/04/28 05:00:57;;;;;;;22.63;12.38;;;6.50;99.90;;;;;;5051498;28;20075;-88
2023/04/28 05:03:23;;;;;;;20.30;11.40;;;6.50;99.90;;;;;;5054404;28;20083;-88
2023/04/28 05:05:49;;;;;;;20.50;12.30;;;6.50;99.90;;;;;;5054110;28;20037;-88
2023/04/28 05:08:14;;;;;;;21.30;11.75;;;6.50;99.90;;;;;;5051584;28;20123;-87
2023/04/28 05:10:40;;;;;;;22.85;11.93;;;6.50;99.90;;;;;;5049145;28;20307;-87
2023/04/28 05:13:06;;;;;;;19.88;11.25;;;6.60;99.90;;;;;;5056524;28;20040;-88
2023/04/28 05:15:31;;;;;;;18.30;11.57;;;6.60;99.90;;;;;;5050533;28;20456;-87
2023/04/28 05:17:57;;;;;;;25.92;12.15;;;6.60;99.90;;;;;;5049572;28;20264;-88
2023/04/28 05:20:22;;;;;;;20.77;11.50;;;6.60;99.90;;;;;;5054594;28;20498;-87
2023/04/28 05:22:48;;;;;;;21.35;11.77;;;7.20;99.90;;;;;;5052862;28;20067;-87
2023/04/28 05:25:14;;;;;;;19.92;12.85;;;6.70;99.90;;;;;;5051800;28;20094;-88
2023/04/28 05:27:40;;;;;;;23.80;11.40;;;6.70;99.90;;;;;;5056346;28;20483;-88
2023/04/28 05:30:09;;;;;;;22.02;11.25;;;6.70;99.90;;;;;;5050755;28;20095;-87
2023/04/28 05:32:36;;;;;;;18.48;11.15;;;6.70;99.90;;;;;;5055095;28;20078;-88
2023/04/28 05:35:02;;;;;;;20.67;11.60;;;6.70;99.90;;;;;;5049120;28;20040;-87
2023/04/28 05:37:27;;;;;;;21.10;12.23;;;6.70;99.90;;;;;;5065729;28;20079;-88
2023/04/28 05:39:54;;;;;;;17.88;10.00;;;6.80;99.90;;;;;;5055748;28;20077;-88
2023/04/28 05:42:20;;;;;;;22.85;11.00;;;6.80;99.90;;;;;;5053207;28;20033;-87
2023/04/28 05:44:45;;;;;;;19.80;11.13;;;6.80;99.90;;;;;;5086407;28;20047;-88
2023/04/28 05:47:11;;;;;;;22.02;11.90;;;7.20;99.90;;;;;;5052388;28;20110;-87
2023/04/28 05:49:37;;;;;;;19.20;11.27;;;7.20;99.90;;;;;;5050290;28;20494;-88
2023/04/28 05:52:02;;;;;;;17.77;11.10;;;6.90;99.90;;;;;;5049286;28;20130;-87
2023/04/28 05:54:28;;;;;;;18.45;11.27;;;7.00;99.90;;;;;;5049858;28;20033;-87
2023/04/28 05:56:54;;;;;;;22.27;11.50;;;7.00;99.90;;;;;;5049969;28;20577;-87
2023/04/28 05:59:20;;;;;;;18.35;10.63;;;7.00;99.90;;;;;;5048591;28;20439;-88
2023/04/28 06:01:46;;;;;;;21.25;11.98;;;7.00;99.90;;;;;;5048717;28;20045;-88
2023/04/28 06:04:11;;;;;;;20.13;12.15;;;7.10;99.90;;;;;;5060119;28;20113;-88
2023/04/28 06:06:37;;;;;;;19.92;11.30;;;7.10;99.90;;;;;;5048638;28;20084;-87
2023/04/28 06:09:03;;;;;;;17.00;10.52;;;7.10;99.90;;;;;;5055756;28;20036;-88
2023/04/28 06:11:29;;;;;;;17.02;11.00;;;7.20;99.90;;;;;;5057495;28;20036;-87
2023/04/28 06:13:54;;;;;;;18.98;10.82;;;7.20;99.90;;;;;;5048942;28;20051;-87
2023/04/28 06:16:22;;;;;;;21.85;11.00;;;7.20;99.90;;;;;;5048367;28;20041;-88
2023/04/28 06:18:48;;;;;;;18.92;11.05;;;7.30;99.90;;;;;;5054519;28;20072;-88
2023/04/28 06:21:14;;;;;;;18.38;10.55;;;7.20;99.90;;;;;;5054081;28;20340;-87
2023/04/28 06:23:41;;;;;;;19.05;11.18;;;7.30;99.90;;;;;;5048289;28;20033;-88
2023/04/28 06:26:07;;;;;;;18.42;10.85;;;7.30;99.90;;;;;;5048720;28;20049;-87
2023/04/28 06:28:32;;;;;;;18.25;10.95;;;7.40;99.90;;;;;;5048226;28;20044;-87
2023/04/28 06:30:58;;;;;;;17.52;10.88;;;7.70;99.90;;;;;;5048470;28;20120;-87
2023/04/28 06:33:24;;;;;;;17.98;10.38;;;7.40;99.90;;;;;;5067763;28;20140;-87
2023/04/28 06:35:50;;;;;;;23.00;12.27;;;7.40;99.90;;;;;;5053672;28;20043;-87
2023/04/28 06:38:16;;;;;;;19.50;10.63;;;7.50;99.90;;;;;;5057262;28;20048;-87
2023/04/28 06:40:41;;;;;;;16.70;10.40;;;7.50;99.90;;;;;;5054562;28;20446;-87
2023/04/28 06:43:07;;;;;;;19.77;11.13;;;7.50;99.90;;;;;;5058704;28;20075;-87
2023/04/28 06:45:33;;;;;;;21.50;11.52;;;7.50;99.90;;;;;;5052311;28;20098;-87
2023/04/28 06:47:58;;;;;;;19.65;11.70;;;7.60;99.90;;;;;;5053439;28;20077;-87
2023/04/28 06:50:24;;;;;;;20.63;11.10;;;7.60;99.90;;;;;;5055647;28;20551;-87
2023/04/28 06:52:49;;;;;;;21.73;12.32;;;7.70;99.90;;;;;;5052211;28;20041;-87
2023/04/28 06:55:16;;;;;;;17.33;10.52;;;7.70;99.90;;;;;;5057318;28;20053;-88
2023/04/28 06:57:42;;;;;;;20.65;11.65;;;7.80;99.90;;;;;;5064454;28;20111;-87
2023/04/28 07:00:09;;;;;;;19.55;11.52;;;7.80;99.90;;;;;;5057395;28;20052;-88
2023/04/28 07:02:35;;;;;;;18.73;11.05;;;7.90;99.90;;;;;;5057637;28;20098;-87
2023/04/28 07:05:02;;;;;;;20.65;12.00;;;7.90;99.90;;;;;;5051874;28;20072;-87
2023/04/28 07:07:28;;;;;;;20.02;11.15;;;7.90;99.90;;;;;;5058854;28;20033;-87
2023/04/28 07:09:54;;;;;;;20.60;10.48;;;8.00;99.90;;;;;;5053320;28;20044;-87
2023/04/28 07:12:21;;;;;;;18.77;11.05;;;8.00;99.90;;;;;;5059630;28;20109;-87
2023/04/28 07:14:46;;;;;;;17.30;11.20;;;8.10;99.90;;;;;;5059064;28;20037;-87
2023/04/28 07:17:12;;;;;;;21.35;11.68;;;8.10;99.90;;;;;;5064150;28;20096;-87
2023/04/28 07:19:38;;;;;;;16.50;10.07;;;8.20;99.90;;;;;;5062180;28;20037;-87
2023/04/28 07:22:03;;;;;;;18.02;10.82;;;8.20;99.90;;;;;;5055780;28;20047;-87
2023/04/28 07:24:29;;;;;;;18.10;10.35;;;8.30;99.90;;;;;;5058895;28;20032;-87
2023/04/28 07:26:56;;;;;;;21.98;10.55;;;8.40;99.90;;;;;;5052756;28;20139;-87
2023/04/28 07:29:22;;;;;;;15.32;9.95;;;8.50;99.90;;;;;;5058389;28;20098;-88
2023/04/28 07:31:47;;;;;;;17.65;10.45;;;8.50;99.90;;;;;;5054898;28;20041;-87
2023/04/28 07:34:13;;;;;;;19.20;10.13;;;8.60;99.90;;;;;;5056994;28;20040;-87
2023/04/28 07:36:39;;;;;;;17.73;9.73;;;8.60;99.90;;;;;;5050831;28;20128;-88
2023/04/28 07:39:04;;;;;;;20.08;10.55;;;8.60;99.90;;;;;;5050937;28;20037;-87
2023/04/28 07:41:35;;;;;;;17.67;10.38;;;9.00;99.90;;;;;;5051220;28;20040;-87
2023/04/28 07:44:04;;;;;;;17.00;10.30;;;9.00;99.90;;;;;;5052845;28;20136;-87
2023/04/28 07:46:30;;;;;;;17.00;10.57;;;8.70;99.90;;;;;;5051453;28;20068;-87
2023/04/28 07:48:55;;;;;;;17.17;10.18;;;8.90;99.90;;;;;;5050573;28;20510;-87
2023/04/28 07:51:21;;;;;;;16.92;9.60;;;8.80;99.90;;;;;;5051178;28;20419;-87
2023/04/28 07:53:47;;;;;;;19.00;9.77;;;8.80;99.90;;;;;;5060802;28;20365;-87
2023/04/28 07:56:12;;;;;;;18.20;9.90;;;8.80;99.90;;;;;;5051029;28;20048;-87
2023/04/28 07:58:38;;;;;;;19.48;11.32;;;8.90;99.90;;;;;;5055656;28;20482;-88
2023/04/28 08:01:04;;;;;;;17.20;10.35;;;8.90;99.90;;;;;;5052884;28;20567;-87
2023/04/28 08:03:29;;;;;;;19.25;10.30;;;9.00;99.90;;;;;;5053583;28;20116;-87
2023/04/28 08:05:55;;;;;;;17.30;9.90;;;9.00;99.90;;;;;;5063106;28;20498;-87
2023/04/28 08:08:20;;;;;;;15.95;10.18;;;9.10;99.90;;;;;;5057562;28;20033;-87
2023/04/28 08:10:48;;;;;;;18.00;10.30;;;9.30;99.90;;;;;;5060636;28;20503;-87
2023/04/28 08:13:15;;;;;;;15.63;9.10;;;9.40;99.90;;;;;;5041169;28;20033;-88
2023/04/28 08:15:41;;;;;;;16.40;10.50;;;9.40;99.90;;;;;;5089947;28;20340;-87
2023/04/28 08:18:07;;;;;;;16.48;9.93;;;9.50;99.90;;;;;;5056776;28;20459;-88
2023/04/28 08:20:32;;;;;;;16.80;10.32;;;9.50;99.90;;;;;;5052675;28;20174;-87
2023/04/28 08:22:58;;;;;;;17.85;11.20;;;9.60;99.90;;;;;;5064732;28;20111;-87
2023/04/28 08:25:24;;;;;;;18.60;10.75;;;9.60;99.90;;;;;;5053023;28;20475;-87
2023/04/28 08:27:50;;;;;;;15.93;10.23;;;9.70;99.90;;;;;;5052272;28;20025;-87
2023/04/28 08:30:16;;;;;;;15.85;9.48;;;9.70;99.90;;;;;;5057405;28;20463;-88
2023/04/28 08:32:41;;;;;;;18.17;9.88;;;9.70;99.90;;;;;;5050416;28;20052;-88
2023/04/28 08:35:07;;;;;;;19.80;10.18;;;9.70;99.90;;;;;;5057708;28;20033;-88
2023/04/28 08:37:33;;;;;;;16.35;10.55;;;9.80;99.90;;;;;;5051154;28;20084;-88
2023/04/28 08:40:01;;;;;;;23.23;10.02;;;9.70;99.90;;;;;;5059390;28;20394;-87
2023/04/28 08:42:31;;;;;;;16.95;9.63;;;9.80;99.90;;;;;;5051824;28;20041;-88
2023/04/28 08:44:58;;;;;;;16.08;9.85;;;9.80;99.90;;;;;;5056410;28;20048;-87
2023/04/28 08:47:34;;;;;;;16.65;9.85;;;10.30;99.90;;;;;;5052738;28;20041;-88
2023/04/28 08:50:05;;;;;;;13.73;9.88;;;9.80;99.90;;;;;;5063378;28;20033;-87
2023/04/28 08:52:32;;;;;;;15.98;9.77;;;9.70;99.90;;;;;;5052104;28;20571;-87
2023/04/28 08:54:59;;;;;;;15.43;9.07;;;9.70;99.90;;;;;;5052173;28;20041;-87
2023/04/28 08:57:36;;;;;;;18.98;10.25;;;9.70;99.90;;;;;;5060477;28;20131;-87
2023/04/28 09:00:02;;;;;;;18.80;11.13;;;9.70;99.90;;;;;;5050548;28;20527;-87
2023/04/28 09:02:27;;;;;;;16.45;10.73;;;9.70;99.90;;;;;;5085106;28;20122;-86
2023/04/28 09:04:53;;;;;;;18.48;11.90;;;9.70;99.90;;;;;;5069415;28;20038;-86
2023/04/28 09:07:18;;;;;;;19.27;11.52;;;9.80;99.90;;;;;;5053199;28;20040;-87
2023/04/28 09:09:44;;;;;;;22.33;11.55;;;9.90;99.90;;;;;;5056606;28;20398;-87
2023/04/28 09:12:10;;;;;;;18.02;11.82;;;10.00;99.90;;;;;;5053630;28;20029;-87
2023/04/28 09:14:37;;;;;;;19.70;10.80;;;10.10;99.90;;;;;;5052516;28;20112;-87
2023/04/28 09:17:11;;;;;;;15.63;11.13;;;10.30;99.90;;;;;;5051502;28;20074;-87
2023/04/28 09:19:37;;;;;;;17.38;10.75;;;10.30;99.90;;;;;;5054558;28;20045;-87
2023/04/28 09:22:04;;;;;;;15.98;10.77;;;10.50;99.90;;;;;;5060016;28;20040;-87
2023/04/28 09:24:35;;;;;;;15.13;11.05;;;10.60;99.90;;;;;;5054820;28;20052;-87
2023/04/28 09:27:03;;;;;;;17.80;10.88;;;10.70;99.90;;;;;;5056468;28;20032;-86
2023/04/28 09:29:29;;;;;;;17.38;10.60;;;10.80;99.90;;;;;;5050682;28;20047;-87
2023/04/28 09:32:13;;;;;;;19.20;10.25;;;10.90;99.90;;;;;;5051858;28;20045;-86
2023/04/28 09:34:44;;;;;;;18.42;10.98;;;10.90;99.90;;;;;;5051973;28;20352;-87
2023/04/28 09:37:18;;;;;;;15.35;10.20;;;11.00;99.90;;;;;;5051537;28;20037;-86
2023/04/28 09:39:52;;;;;;;17.45;10.05;;;11.20;99.90;;;;;;5049769;28;20580;-87
2023/04/28 09:42:34;;;;;;;17.83;9.93;;;11.30;99.90;;;;;;5056112;28;20465;-87
2023/04/28 09:45:04;;;;;;;16.95;10.15;;;11.40;99.90;;;;;;5046557;28;20098;-87
2023/04/28 09:47:32;;;;;;;15.73;10.57;;;11.50;99.90;;;;;;5062512;28;20067;-87
2023/04/28 09:49:59;;;;;;;18.00;10.02;;;11.60;99.90;;;;;;5056245;28;20051;-87
2023/04/28 09:52:25;;;;;;;13.98;9.07;;;11.70;99.90;;;;;;5054308;28;20059;-87
2023/04/28 09:54:52;;;;;;;16.10;9.50;;;11.70;99.90;;;;;;5050974;28;20070;-87
2023/04/28 09:57:18;;;;;;;15.70;9.95;;;11.80;99.90;;;;;;5049636;28;20045;-86
2023/04/28 09:59:50;;;;;;;15.63;10.05;;;12.10;99.90;;;;;;5053013;28;20515;-87
2023/04/28 10:02:18;;;;;;;16.38;10.82;;;11.90;99.90;;;;;;5049296;28;20057;-86
2023/04/28 10:04:46;;;;;;;16.48;9.20;;;12.10;99.90;;;;;;5051280;28;20043;-87
2023/04/28 10:07:13;;;;;;;15.02;9.50;;;12.30;99.90;;;;;;5048723;28;20047;-86
2023/04/28 10:09:43;;;;;;;15.35;10.10;;;12.50;99.90;;;;;;5050058;28;20092;-87
2023/04/28 10:12:10;;;;;;;17.38;10.25;;;12.50;99.90;;;;;;5053887;28;20120;-88
2023/04/28 10:14:36;;;;;;;15.00;10.80;;;12.50;99.90;;;;;;5050933;28;20041;-87
2023/04/28 10:17:03;;;;;;;17.17;10.18;;;12.50;99.90;;;;;;5054207;28;20037;-86
2023/04/28 10:19:28;;;;;;;14.45;10.15;;;12.80;99.90;;;;;;5053956;28;20041;-87
2023/04/28 10:22:13;;;;;;;18.73;9.80;;;12.70;99.90;;;;;;5055132;28;20037;-87
2023/04/28 10:25:03;;;;;;;13.70;10.27;;;12.90;99.90;;;;;;5033830;28;20120;-87
2023/04/28 10:27:34;;;;;;;18.20;10.93;;;13.00;99.90;;;;;;5065659;28;20055;-87
2023/04/28 10:30:10;;;;;;;15.43;9.60;;;13.10;99.90;;;;;;5049550;28;20033;-87
2023/04/28 10:32:36;;;;;;;17.90;10.50;;;13.10;99.90;;;;;;5054666;28;20143;-87
2023/04/28 10:35:39;;;;;;;14.60;10.65;;;13.30;99.90;;;;;;5049734;28;20072;-87
2023/04/28 10:38:04;;;;;;;13.88;8.90;;;13.40;99.90;;;;;;5040319;28;20048;-87
2023/04/28 10:40:34;;;;;;;15.82;10.50;;;13.30;99.90;;;;;;5049333;28;20622;-87
2023/04/28 10:43:00;;;;;;;13.07;8.90;;;13.30;99.90;;;;;;5064096;28;20104;-87
2023/04/28 10:45:47;;;;;;;14.70;9.77;;;13.30;99.90;;;;;;5050172;28;20044;-87
2023/04/28 10:48:17;;;;;;;13.07;8.75;;;13.30;99.90;;;;;;5061392;28;20037;-87
2023/04/28 10:51:14;;;;;;;15.10;10.40;;;13.30;99.90;;;;;;5046587;28;20040;-87
2023/04/28 10:53:45;;;;;;;14.77;10.40;;;13.40;99.90;;;;;;5047767;28;20041;-87
2023/04/28 10:56:18;;;;;;;15.43;10.23;;;13.30;99.90;;;;;;5055336;28;20040;-87
2023/04/28 10:59:12;;;;;;;17.20;9.90;;;13.30;99.90;;;;;;5050340;28;20053;-88
2023/04/28 11:01:39;;;;;;;14.95;9.93;;;13.30;99.90;;;;;;5050247;28;20140;-87
2023/04/28 11:04:09;;;;;;;13.95;9.77;;;13.40;99.90;;;;;;5048393;28;20029;-87
2023/04/28 11:06:44;;;;;;;16.08;10.13;;;13.10;99.90;;;;;;5037180;28;20036;-86
2023/04/28 11:09:13;;;;;;;14.75;9.88;;;13.10;99.90;;;;;;5053161;28;20033;-87
2023/04/28 11:11:58;;;;;;;13.45;9.73;;;13.00;99.90;;;;;;5048105;28;20309;-87
2023/04/28 11:14:23;;;;;;;13.95;9.43;;;13.00;99.90;;;;;;5055427;28;20506;-87
2023/04/28 11:17:00;;;;;;;14.80;9.40;;;12.90;99.90;;;;;;5050944;28;20073;-87
2023/04/28 11:19:31;;;;;;;15.05;9.50;;;13.00;99.90;;;;;;5032944;28;20128;-87
2023/04/28 11:21:59;;;;;;;11.65;9.13;;;13.00;99.90;;;;;;5053388;28;20045;-87
2023/04/28 11:24:28;;;;;;;12.02;9.23;;;13.10;99.90;;;;;;5060177;28;20711;-86
2023/04/28 11:26:55;;;;;;;12.40;8.77;;;13.20;99.90;;;;;;5059761;28;20087;-87
2023/04/28 11:29:50;;;;;;;13.65;10.02;;;13.20;99.90;;;;;;5051913;28;20476;-87
2023/04/28 11:32:16;;;;;;;;;;;13.30;99.90;;;;;;5048950;28;20141;-87
2023/04/28 11:34:41;;;;;;;13.45;9.00;;;13.40;99.90;;;;;;5064924;28;20031;-87
2023/04/28 11:37:08;;;;;;;14.20;9.93;;;13.70;99.90;;;;;;5059709;28;20054;-87
2023/04/28 11:39:34;;;;;;;15.10;9.48;;;13.60;99.90;;;;;;5040166;28;20559;-87
2023/04/28 11:42:08;;;;;;;14.30;9.18;;;13.70;99.90;;;;;;5057895;28;20051;-87
2023/04/28 11:44:33;;;;;;;12.05;9.48;;;13.80;99.90;;;;;;5057209;28;20033;-87
2023/04/28 11:47:01;;;;;;;12.68;8.32;;;13.80;99.90;;;;;;5053333;28;20529;-86
2023/04/28 11:49:32;;;;;;;13.82;9.30;;;13.80;99.90;;;;;;5058390;28;20041;-87
2023/04/28 11:52:05;;;;;;;14.05;9.65;;;13.80;99.90;;;;;;5059205;28;20033;-87
2023/04/28 11:54:31;;;;;;;13.60;9.98;;;13.80;99.90;;;;;;5053764;28;20068;-87
2023/04/28 11:56:57;;;;;;;13.50;10.05;;;13.70;99.90;;;;;;5053612;28;20076;-87
2023/04/28 11:59:29;;;;;;;12.02;9.27;;;13.70;99.90;;;;;;5050907;28;20095;-87
2023/04/28 12:01:59;;;;;;;15.25;10.05;;;13.70;99.90;;;;;;5054739;28;20046;-87
2023/04/28 12:04:28;;;;;;;14.18;9.95;;;13.60;99.90;;;;;;5054270;28;20037;-88
2023/04/28 12:07:05;;;;;;;14.23;9.80;;;13.80;99.90;;;;;;5057717;28;20067;-86
2023/04/28 12:09:35;;;;;;;14.10;9.45;;;13.60;99.90;;;;;;5051748;28;20044;-87
2023/04/28 12:12:04;;;;;;;15.13;10.25;;;13.60;99.90;;;;;;5054668;28;20466;-87
2023/04/28 12:14:34;;;;;;;15.88;8.80;;;13.60;99.90;;;;;;5050772;28;20506;-87
2023/04/28 12:17:00;;;;;;;14.63;9.90;;;13.70;99.90;;;;;;5050509;28;20040;-87
2023/04/28 12:19:25;;;;;;;15.27;9.40;;;13.70;99.90;;;;;;5053500;28;20092;-87
2023/04/28 12:22:06;;;;;;;14.02;10.20;;;13.70;99.90;;;;;;5051434;28;20575;-87
2023/04/28 12:24:34;;;;;;;12.88;9.57;;;13.70;99.90;;;;;;5051061;28;20029;-87
2023/04/28 12:27:19;;;;;;;13.00;9.00;;;13.70;99.90;;;;;;5049765;28;20098;-87
2023/04/28 12:29:47;;;;;;;;;;;13.70;99.90;;;;;;5052014;28;20094;-87
2023/04/28 12:32:13;;;;;;;15.48;9.43;;;13.70;99.90;;;;;;5051469;28;19939;-86
2023/04/28 12:34:40;;;;;;;14.65;10.50;;;13.70;99.90;;;;;;5054109;28;20037;-87
2023/04/28 12:37:06;;;;;;;14.70;9.45;;;13.80;99.90;;;;;;5064281;28;20150;-87
2023/04/28 12:39:33;;;;;;;14.15;10.07;;;13.70;99.90;;;;;;5055594;28;20429;-87